Kuggoren, Sweden

4:28 AM CEST on July 30, 2014 (GMT +0200)
Lonnanger, Nordanstig (IGVLEBOR16) Elev 34 ft | 61.93 °N, 17.31 °E | Change Station

Current weather conditions updated 26 minutes ago

Rain
Rain
60.8 °F
Feels Like 60.8 °F
N
0.0
Wind Variable Wind from WNW
Gusts 2.0 mph

Today is forecast to be nearly the same temperature as yesterday. Thunderstorms early.

Today
High -- | Low -- °F
--% Chance of Precip.
Yesterday
High -- | Low -- °F
Precip. -- in
4:12 AM 9:38 PM
Waxing Crescent, 9% visible
Pressure 29.77 in
Visibility 6.2 miles
Clouds Few 500 ft
Mostly Cloudy 1300 ft
Dew Point 60 °F
Humidity 99%
Rainfall 0.00 in
Snow Depth Not available.
UV 0 out of 12
Pollen Not available.
Air Quality Not available.
Flu Activity Not available.
METAR ESNN 300220Z AUTO VRB03KT 9999 FEW005/// BKN013/// 16/15 Q1008

More Conditions Fewer Conditions

Pressure 29.77 in
Visibility 6.2 miles
Clouds Few 500 ft
Mostly Cloudy 1300 ft
Dew Point 60 °F
Humidity 99%
Rainfall 0.00 in
Snow Depth Not available.
UV 0 out of 12
Pollen Not available.
Air Quality Not available.
Flu Activity Not available.
METAR ESNN 300220Z AUTO VRB03KT 9999 FEW005/// BKN013/// 16/15 Q1008

More Conditions Fewer Conditions

10-Day Weather Forecast

Almanac

Astronomy

Jul. 30, 2014 Rise Set
Actual Time 4:12 AM CEST 9:38 PM CEST
Civil Twilight 3:00 AM CEST 10:48 PM CEST
Nautical Twilight 1:28 AM CEST 12:23 AM CEST
Astronomical Twilight Sun does not rise Sun does not rise
Moon 8:46 AM CEST 9:45 PM CEST
Length of Visible Light 19h 47m
Length of Day
17h 25m
Tomorrow will be 5m 21s shorter.
Waxing Crescent, 9% of the Moon is Illuminated
Jul 29
Waxing Crescent
Aug 3
First Quarter
Aug 10
Full
Aug 17
Last Quarter
Aug 25
New

Yesterday's Extremes

Country Highs Country Lows

Community

WunderPhotos

Upload Photos

1,738,964 photos uploaded!

Nearby

Snow Depth

Not available.

Earthquake Activity

City Distance Mag. Time & Date
No recent earthquake activity has been reported nearby.
Minimum magnitude displayed is 2.5.

Coastal Water Temperatures

Place Temperature
No Stations Reporting

Nearby Weather Stations

Station Location Temp. Dew Point Humidity Wind Precip. Elev Updated Type
Lonnanger, Nordanstig, Lonnanger 60.8 °F 60 °F 99% WNW  at  0.0 mph 0.01 in / hr 34 ft 4:02 AM CEST Normal

Show More Stations Show Fewer Stations